Ship Status Report: callsign AMOUK20

sailwx.info

Track history (hours):
 
Tides and Currents Weather Stations Pressure Air Temp Water Temp Dewpoint Dewpoint Depression Visibility Wind Speed Wind Dir Waves Ship Positions

Callsign AMOUK20 (name unknown)

Last reported at 2014-Jul-30 13:00 UTC. Time now 2014-Jul-30 15:14 UTC.
Position S 03°24' E 009°36'.

Barometer 1014.7 mb
Air temperature 17.1 ° C

Date/timePositionNaut miles runAvg speedWind from/ knotsBaromVisibWave heightAir tempDewpointWater temp
2014-Jul-30 13:00S 03°24' E 009°36'6 6.0 1014.7 17.1
2014-Jul-30 12:00S 03°24' E 009°42'8 8.5 1016.1 17.9
2014-Jul-30 11:00S 03°30' E 009°48'8 8.5 1016.9 17.9
2014-Jul-30 10:00S 03°36' E 009°54'13 6.7 1017.6 17.3
2014-Jul-30 08:00S 03°48' E 010°00'8 8.5 1017.8 16.7
2014-Jul-30 07:00S 03°54' E 010°06'8 8.5 1017.8 16.8
2014-Jul-30 06:00S 04°00' E 010°12'6 6.0 1017.0 16.6
2014-Jul-30 05:00S 04°00' E 010°18'8 8.5 1016.4 16.3
2014-Jul-30 04:00S 04°06' E 010°24'8 8.5 1015.8 16.5
2014-Jul-30 03:00S 04°12' E 010°30'6 6.0 1015.5 16.4
2014-Jul-30 02:00S 04°18' E 010°30'8 8.5 1015.8 16.6
2014-Jul-30 01:00S 04°24' E 010°36'6 6.0 1016.4 16.5
2014-Jul-30 00:00S 04°24' E 010°42'8 8.5 1016.4 16.5
2014-Jul-29 23:00S 04°30' E 010°48'8 8.5 1016.4 16.4
2014-Jul-29 22:00S 04°36' E 010°54'8 8.5 1016.8 16.6
2014-Jul-29 21:00S 04°42' E 011°00'17 5.6 1016.4 17.3
2014-Jul-29 18:00S 04°54' E 011°12'6 6.0 1014.4 18.3
2014-Jul-29 17:00S 04°48' E 011°12'6 6.0 1013.8 18.4
2014-Jul-29 16:00S 04°48' E 011°06'8 8.5 1013.4 19.0
2014-Jul-29 15:00S 04°42' E 011°00'8 8.5 1012.9 19.0
2014-Jul-29 14:00S 04°36' E 010°54'8 8.5 1013.1 18.8
2014-Jul-29 13:00S 04°30' E 010°48'13 6.7 1013.6 19.0
2014-Jul-29 11:00S 04°24' E 010°36'6 6.0 1015.1 18.4
2014-Jul-29 10:00S 04°18' E 010°36'6 6.0 1015.8 17.5
2014-Jul-29 09:00S 04°24' E 010°36'6 6.0 1015.6 18.2
2014-Jul-29 08:00S 04°18' E 010°36'8 8.5 1015.7 18.5
2014-Jul-29 07:00S 04°12' E 010°30'8 8.5 1015.5 18.2
2014-Jul-29 06:00S 04°06' E 010°24'6 6.0 1015.2 18.3
2014-Jul-29 05:00S 04°06' E 010°18'8 8.5 1014.9 18.5
2014-Jul-29 04:00S 04°00' E 010°12'8 8.5 1014.4 18.4
2014-Jul-29 03:00S 03°54' E 010°06'8 8.5 1014.3 18.2
2014-Jul-29 02:00S 03°48' E 010°00'6 6.0 1014.0 18.7
2014-Jul-29 01:00S 03°42' E 010°00'6 6.0 1014.5 18.4
2014-Jul-29 00:00S 03°42' E 009°54'8 8.5 1015.1 18.2
2014-Jul-28 23:00S 03°36' E 009°48'8 8.5 1015.8 18.3
2014-Jul-28 22:00S 03°30' E 009°42'8 8.5 1016.0 18.7
2014-Jul-28 21:00S 03°24' E 009°36'6 6.0 1015.7 18.5
2014-Jul-28 20:00S 03°18' E 009°36'8 8.5 1015.3 18.6
2014-Jul-28 19:00S 03°12' E 009°30'8 8.5 1014.8 18.8
2014-Jul-28 18:00S 03°06' E 009°24'8 8.5 1014.1 18.9
2014-Jul-28 17:00S 03°00' E 009°18'8 4.2 1013.4 18.8
2014-Jul-28 15:00S 02°54' E 009°12'17 8.5 1013.3 18.9
2014-Jul-28 13:00S 02°42' E 009°00'6 6.0 1014.3 19.4
2014-Jul-28 12:00S 02°36' E 009°00'8 8.5 1014.9 19.6
2014-Jul-28 11:00S 02°30' E 008°54'6 6.0 1015.9 19.9
2014-Jul-28 10:00S 02°24' E 008°54'6 6.0 1016.8 19.9
2014-Jul-28 09:00S 02°24' E 008°48'12 6.0 1017.3 19.5
2014-Jul-28 07:00S 02°12' E 008°48'8 8.5 1016.9 18.7
2014-Jul-28 06:00S 02°06' E 008°42'6 6.0 1016.0 18.9
2014-Jul-28 05:00S 02°00' E 008°42'6 6.0 1015.5 19.0
2014-Jul-28 04:00S 01°54' E 008°42'8 8.5 1014.9 19.4
2014-Jul-28 03:00S 01°48' E 008°36'6 6.0 1014.8 19.6
2014-Jul-28 02:00S 01°42' E 008°36'8 8.5 1014.4 19.7
2014-Jul-28 01:00S 01°36' E 008°30'6 6.0 1014.6 19.8
2014-Jul-28 00:00S 01°30' E 008°30'8 8.5 1015.1 19.9
2014-Jul-27 23:00S 01°24' E 008°24'13 6.7 1015.4 20.1
2014-Jul-27 21:00S 01°12' E 008°18'6 6.0 1016.0 20.5
2014-Jul-27 20:00S 01°06' E 008°18'6 6.0 1015.9 20.6
2014-Jul-27 19:00S 01°06' E 008°24'6 6.0 1014.7 20.8
2014-Jul-27 18:00S 01°00' E 008°24'6 6.0 1014.1 20.8
2014-Jul-27 17:00S 00°54' E 008°24'18 9.0 1013.0 21.1
2014-Jul-27 15:00S 00°36' E 008°24'8 8.5 1012.7 21.8
2014-Jul-27 14:00S 00°30' E 008°30'6 6.0 1012.9 21.8
2014-Jul-27 13:00S 00°24' E 008°30'8 8.5 1014.3 22.1
2014-Jul-27 12:00S 00°18' E 008°36'0 0.0 1015.1 22.1
2014-Jul-27 10:00S 00°18' E 008°36'8 8.5 1017.0 22.0
2014-Jul-27 09:00S 00°12' E 008°42'8 8.5 1017.3 21.2
2014-Jul-27 08:00S 00°06' E 008°48'6 6.0 1017.1 21.3
2014-Jul-27 07:00N 00°00' E 008°48'6 6.0 1016.3 21.4
2014-Jul-27 06:00N 00°06' E 008°48'12 6.0 1015.5 21.5
2014-Jul-27 04:00N 00°18' E 008°48'6 6.0 1013.9 21.8
2014-Jul-27 03:00N 00°24' E 008°48'6 6.0 1013.7 21.8
2014-Jul-27 02:00N 00°30' E 008°48'1212.0 1013.4 21.9
2014-Jul-27 01:00N 00°42' E 008°48'8 8.5 1014.2 22.1
2014-Jul-27 00:00N 00°48' E 008°54'6 6.0 1014.6 22.6
2014-Jul-26 23:00N 00°54' E 008°54'8 8.5 1015.1 22.8
2014-Jul-26 22:00N 01°00' E 009°00'6 6.0 1015.0 23.1
2014-Jul-26 21:00N 01°06' E 009°00'8 8.5 1015.0 23.3
2014-Jul-26 20:00N 01°12' E 009°06'12 6.0 1014.3 23.4
2014-Jul-26 18:00N 01°24' E 009°06'8 8.5 1012.9 23.1
2014-Jul-26 17:00N 01°30' E 009°12'6 6.0 1012.4 23.0
2014-Jul-26 16:00N 01°36' E 009°12'6 6.0 1012.1 22.6
2014-Jul-26 15:00N 01°42' E 009°12'1212.0 1012.6 22.7
2014-Jul-26 14:00N 01°54' E 009°12'8 8.5 1013.2 22.6
2014-Jul-26 13:00N 02°00' E 009°18'6 6.0 1013.5 22.9
2014-Jul-26 12:00N 02°06' E 009°18'19 6.3 1014.3 23.0
2014-Jul-26 09:00N 02°24' E 009°24'6 6.0 1016.0 22.9
2014-Jul-26 08:00N 02°30' E 009°24'13 6.7 1015.8 22.9
2014-Jul-26 06:00N 02°42' E 009°30'12 6.0 1014.5 23.3
2014-Jul-26 04:00N 02°54' E 009°30'1212.0 1014.0 23.3
2014-Jul-26 03:00N 02°54' E 009°18'6 6.0 1013.7 23.4
2014-Jul-26 02:00N 02°54' E 009°12'6 6.0 1014.1 23.5
2014-Jul-26 01:00N 02°54' E 009°06'6 6.0 1014.8 23.6
2014-Jul-26 00:00N 02°54' E 009°00'6 6.0 1015.3 23.6
2014-Jul-25 23:00N 02°54' E 008°54'6 6.0 1015.9 23.6
2014-Jul-25 22:00N 02°54' E 008°48'1212.0 1016.4 23.8
2014-Jul-25 21:00N 02°54' E 008°36'6 6.0 1016.1 24.0
2014-Jul-25 20:00N 02°54' E 008°30'6 6.0 1015.8 24.1
2014-Jul-25 19:00N 02°54' E 008°24'6 6.0 1015.3 24.2
2014-Jul-25 18:00N 03°00' E 008°24'22 7.2 1014.3 24.2
2014-Jul-25 15:00N 03°18' E 008°12'6 6.0 1013.9 24.5
2014-Jul-25 14:00N 03°18' E 008°06'8 8.5 1014.2 24.9
2014-Jul-25 13:00N 03°24' E 008°00'8 8.5 1015.0 24.6
2014-Jul-25 12:00N 03°30' E 007°54'0 0.0 1016.0 24.0
2014-Jul-25 11:00N 03°30' E 007°54'6 6.0 1016.6 23.7
2014-Jul-25 10:00N 03°30' E 007°48'0 0.0 1017.0 24.1
2014-Jul-25 09:00N 03°30' E 007°48'6 6.0 1017.1 24.2
2014-Jul-25 08:00N 03°30' E 007°42'6 6.0 1016.8 24.1
2014-Jul-25 07:00N 03°30' E 007°36'6 6.0 1016.4 24.1
2014-Jul-25 06:00N 03°30' E 007°30'12 6.0 1015.6 23.8
2014-Jul-25 04:00N 03°30' E 007°18'8 8.5 1014.2 23.8
2014-Jul-25 03:00N 03°36' E 007°12'0 0.0 1014.3 23.8
2014-Jul-25 02:00N 03°36' E 007°12'1212.0 1014.7 24.0
2014-Jul-25 01:00N 03°36' E 007°00'6 6.0 1015.3 24.0
2014-Jul-25 00:00N 03°36' E 006°54'6 6.0 1016.0 24.1
2014-Jul-24 23:00N 03°36' E 006°48'6 6.0 1016.7 24.1
2014-Jul-24 22:00N 03°36' E 006°42'6 6.0 1017.0 24.2
2014-Jul-24 21:00N 03°36' E 006°36'1212.0 1016.7 24.3
2014-Jul-24 20:00N 03°36' E 006°24'6 6.0 1015.8 24.0
2014-Jul-24 19:00N 03°36' E 006°18'8 8.5 1014.8 23.9
2014-Jul-24 18:00N 03°42' E 006°12'6 6.0 1014.2 24.3
2014-Jul-24 17:00N 03°42' E 006°06'6 6.0 1014.0 24.9
2014-Jul-24 16:00N 03°42' E 006°00'1212.0 1014.2 24.9
2014-Jul-24 15:00N 03°42' E 005°48'6 6.0 1014.3 25.0
2014-Jul-24 14:00N 03°42' E 005°42'13 6.7 1014.8 25.1
2014-Jul-24 12:00N 03°48' E 005°30'6 6.0 1016.3 25.4
2014-Jul-24 11:00N 03°48' E 005°24'6 6.0 1017.5 24.5
2014-Jul-24 10:00N 03°48' E 005°18'6 6.0 1017.8 24.9
2014-Jul-24 09:00N 03°54' E 005°18'0 0.0 1017.8 24.2
2014-Jul-24 08:00N 03°54' E 005°18'13 6.7 1017.3 24.9
2014-Jul-24 06:00N 04°06' E 005°12'8 8.5 1016.2 24.0
2014-Jul-24 05:00N 04°12' E 005°06'8 8.5 1015.9 24.1
2014-Jul-24 04:00N 04°18' E 005°00'6 6.0 1015.3 24.1
2014-Jul-24 03:00N 04°24' E 005°00'13 6.7 1015.4 23.9
2014-Jul-24 01:00N 04°36' E 004°54'8 8.5 1016.0 24.2
2014-Jul-24 00:00N 04°42' E 004°48'6 6.0 1016.4 24.3
2014-Jul-23 23:00N 04°48' E 004°48'8 8.5 1017.0 24.5
2014-Jul-23 22:00N 04°54' E 004°42'1212.0 1016.9 24.5
2014-Jul-23 21:00N 05°06' E 004°42'6 6.0 1016.2 24.6
2014-Jul-23 20:00N 05°12' E 004°42'8 8.5 1016.1 24.6
2014-Jul-23 19:00N 05°18' E 004°36'6 6.0 1015.6 24.8
2014-Jul-23 18:00N 05°24' E 004°36'8 8.5 1015.0 24.8
2014-Jul-23 17:00N 05°30' E 004°30'8 8.5 1014.3 25.0
2014-Jul-23 16:00N 05°36' E 004°24'6 6.0 1014.3 25.3
2014-Jul-23 15:00N 05°42' E 004°24'8 8.5 1014.5 25.6
2014-Jul-23 14:00N 05°48' E 004°18'6 6.0 1014.8 25.6
2014-Jul-23 13:00N 05°48' E 004°12'8 8.5 1015.5 25.9
2014-Jul-23 12:00N 05°54' E 004°06'8 8.5 1016.5 25.3
2014-Jul-23 11:00N 06°00' E 004°00'6 6.0 1017.0 25.2
2014-Jul-23 10:00N 06°06' E 004°00'6 6.0 1017.4 25.3
2014-Jul-23 09:00N 06°06' E 003°54'6 6.0 1017.4 25.4
2014-Jul-23 08:00N 06°06' E 003°48'1211.9 1016.5 24.9
2014-Jul-23 07:00N 06°06' E 003°36'6 6.0 1016.3 24.7
2014-Jul-23 06:00N 06°06' E 003°30'6 6.0 1015.8 24.5
2014-Jul-23 05:00N 06°06' E 003°24'6 6.0 1015.2 24.3
2014-Jul-23 04:00N 06°06' E 003°18'1211.9 1014.9 24.2
2014-Jul-23 03:00N 06°06' E 003°06'6 6.0 1014.7 24.2
2014-Jul-23 02:00N 06°06' E 003°00'6 6.0 1014.8 24.3
2014-Jul-23 01:00N 06°06' E 002°54'6 6.0 1015.4 24.4
2014-Jul-23 00:00N 06°06' E 002°48'18 8.9 1015.5 24.4
2014-Jul-22 22:00N 06°06' E 002°30'6 6.0 1016.5 24.4
2014-Jul-22 21:00N 06°06' E 002°24'6 6.0 1016.4 24.3
2014-Jul-22 20:00N 06°06' E 002°18'6 6.0 1016.0 24.3
2014-Jul-22 19:00N 06°06' E 002°12'1211.9 1015.5 24.2
2014-Jul-22 18:00N 06°06' E 002°00'13 6.7 1015.3 24.2
2014-Jul-22 16:00N 06°00' E 001°48'6 6.0 1014.8 24.5
2014-Jul-22 15:00N 06°00' E 001°42'6 6.0 1014.4 24.5
2014-Jul-22 14:00N 06°00' E 001°36'1313.4 1015.0 24.1
2014-Jul-22 13:00N 05°54' E 001°24'6 6.0 1015.9 23.9
2014-Jul-22 12:00N 05°54' E 001°18'0 0.0 1016.8 23.9
2014-Jul-22 11:00N 05°54' E 001°18'1313.4 1017.1 23.8
2014-Jul-22 10:00N 05°42' E 001°12'0 0.0 1018.0 23.7
2014-Jul-22 09:00N 05°42' E 001°12'8 8.5 1017.9 23.4
2014-Jul-22 08:00N 05°36' E 001°06'6 6.0 1017.4 23.4
2014-Jul-22 07:00N 05°30' E 001°06'6 6.0 1016.3 23.3
2014-Jul-22 06:00N 05°30' E 001°00'1211.9 1015.9 22.9
2014-Jul-22 05:00N 05°30' E 000°48'6 6.0 1016.2 22.8
2014-Jul-22 04:00N 05°30' E 000°42'6 6.0 1015.4 22.7
2014-Jul-22 03:00N 05°30' E 000°36'6 6.0 1015.3 22.7
2014-Jul-22 02:00N 05°30' E 000°30'6 6.0 1015.5 22.5
2014-Jul-22 01:00N 05°30' E 000°24'6 6.0 1015.8 22.6
2014-Jul-22 00:00N 05°30' E 000°18'19 9.4 1016.2 22.7
2014-Jul-21 22:00N 05°24' E 000°00'6 6.0 1016.5 23.1
2014-Jul-21 21:00N 05°18' E 000°00'8 8.5 1016.3 23.1
2014-Jul-21 20:00N 05°12' W 000°06'6 6.0 1016.3 23.2
2014-Jul-21 19:00N 05°12' W 000°12'8 8.5 1016.3 23.7
2014-Jul-21 18:00N 05°06' W 000°18'8 8.5 1015.9 24.6
2014-Jul-21 17:00N 05°00' W 000°24'8 8.5 1015.3 25.6
2014-Jul-21 16:00N 04°54' W 000°30'6 6.0 1015.1 26.3
2014-Jul-21 15:00N 04°48' W 000°30'13 6.7 1015.4 24.5
2014-Jul-21 13:00N 04°42' W 000°42'8 8.5 1016.6 26.0
2014-Jul-21 12:00N 04°36' W 000°48'8 8.5 1017.3 25.6
2014-Jul-21 11:00N 04°30' W 000°54'8 8.5 1018.1 24.9
2014-Jul-21 10:00N 04°24' W 001°00'6 6.0 1018.2 24.4
2014-Jul-21 09:00N 04°24' W 001°06'8 8.5 1018.2 24.2
2014-Jul-21 08:00N 04°18' W 001°12'6 6.0 1017.7 23.5
2014-Jul-21 07:00N 04°18' W 001°18'8 8.5 1017.1 23.3
2014-Jul-21 06:00N 04°12' W 001°24'6 6.0 1016.5 23.1
2014-Jul-21 05:00N 04°12' W 001°30'6 6.0 1016.0 23.3
2014-Jul-21 04:00N 04°12' W 001°36'6 6.0 1015.8 23.3
2014-Jul-21 03:00N 04°12' W 001°42'6 6.0 1015.9 23.3
2014-Jul-21 02:00N 04°12' W 001°48'8 8.5 1016.1 23.2
2014-Jul-21 01:00N 04°18' W 001°54'6 6.0 1016.5 23.3
2014-Jul-21 00:00N 04°18' W 002°00'8 8.5 1016.8 23.3
2014-Jul-20 23:00N 04°24' W 002°06'6 6.0 1017.0 23.4
2014-Jul-20 22:00N 04°24' W 002°12'6 6.0 1017.2 23.3
2014-Jul-20 21:00N 04°24' W 002°18'8 8.5 1016.9 23.3
2014-Jul-20 20:00N 04°30' W 002°24'6 6.0 1016.4 23.5
2014-Jul-20 19:00N 04°30' W 002°30'8 8.5 1015.6 23.5
2014-Jul-20 18:00N 04°36' W 002°36'6 6.0 1014.9 23.7
2014-Jul-20 17:00N 04°36' W 002°42'8 8.5 1014.6 24.2
2014-Jul-20 16:00N 04°42' W 002°48'6 6.0 1014.9 24.0
2014-Jul-20 15:00N 04°42' W 002°54'18 9.0 1015.1 24.4
2014-Jul-20 13:00N 04°42' W 003°12'   1016.3 24.7
Track history (hours):
 
Tides and Currents Weather Stations Pressure Air Temp Water Temp Dewpoint Dewpoint Depression Visibility Wind Speed Wind Dir Waves Ship Positions

Callsign AMOUK20 (name unknown)

Last reported at 2014-Jul-30 13:00 UTC. Time now 2014-Jul-30 15:14 UTC.
Position S 03°24' E 009°36'.

Barometer 1014.7 mb
Air temperature 17.1 ° C

Date/timePositionNaut miles runAvg speedWind from/ knotsBaromVisibWave heightAir tempDewpointWater temp
2014-Jul-30 13:00S 03°24' E 009°36'6 6.0 1014.7 17.1
2014-Jul-30 12:00S 03°24' E 009°42'8 8.5 1016.1 17.9
2014-Jul-30 11:00S 03°30' E 009°48'8 8.5 1016.9 17.9
2014-Jul-30 10:00S 03°36' E 009°54'13 6.7 1017.6 17.3
2014-Jul-30 08:00S 03°48' E 010°00'8 8.5 1017.8 16.7
2014-Jul-30 07:00S 03°54' E 010°06'8 8.5 1017.8 16.8
2014-Jul-30 06:00S 04°00' E 010°12'6 6.0 1017.0 16.6
2014-Jul-30 05:00S 04°00' E 010°18'8 8.5 1016.4 16.3
2014-Jul-30 04:00S 04°06' E 010°24'8 8.5 1015.8 16.5
2014-Jul-30 03:00S 04°12' E 010°30'6 6.0 1015.5 16.4
2014-Jul-30 02:00S 04°18' E 010°30'8 8.5 1015.8 16.6
2014-Jul-30 01:00S 04°24' E 010°36'6 6.0 1016.4 16.5
2014-Jul-30 00:00S 04°24' E 010°42'8 8.5 1016.4 16.5
2014-Jul-29 23:00S 04°30' E 010°48'8 8.5 1016.4 16.4
2014-Jul-29 22:00S 04°36' E 010°54'8 8.5 1016.8 16.6
2014-Jul-29 21:00S 04°42' E 011°00'17 5.6 1016.4 17.3
2014-Jul-29 18:00S 04°54' E 011°12'6 6.0 1014.4 18.3
2014-Jul-29 17:00S 04°48' E 011°12'6 6.0 1013.8 18.4
2014-Jul-29 16:00S 04°48' E 011°06'8 8.5 1013.4 19.0
2014-Jul-29 15:00S 04°42' E 011°00'8 8.5 1012.9 19.0
2014-Jul-29 14:00S 04°36' E 010°54'8 8.5 1013.1 18.8
2014-Jul-29 13:00S 04°30' E 010°48'13 6.7 1013.6 19.0
2014-Jul-29 11:00S 04°24' E 010°36'6 6.0 1015.1 18.4
2014-Jul-29 10:00S 04°18' E 010°36'6 6.0 1015.8 17.5
2014-Jul-29 09:00S 04°24' E 010°36'6 6.0 1015.6 18.2
2014-Jul-29 08:00S 04°18' E 010°36'8 8.5 1015.7 18.5
2014-Jul-29 07:00S 04°12' E 010°30'8 8.5 1015.5 18.2
2014-Jul-29 06:00S 04°06' E 010°24'6 6.0 1015.2 18.3
2014-Jul-29 05:00S 04°06' E 010°18'8 8.5 1014.9 18.5
2014-Jul-29 04:00S 04°00' E 010°12'8 8.5 1014.4 18.4
2014-Jul-29 03:00S 03°54' E 010°06'8 8.5 1014.3 18.2
2014-Jul-29 02:00S 03°48' E 010°00'6 6.0 1014.0 18.7
2014-Jul-29 01:00S 03°42' E 010°00'6 6.0 1014.5 18.4
2014-Jul-29 00:00S 03°42' E 009°54'8 8.5 1015.1 18.2
2014-Jul-28 23:00S 03°36' E 009°48'8 8.5 1015.8 18.3
2014-Jul-28 22:00S 03°30' E 009°42'8 8.5 1016.0 18.7
2014-Jul-28 21:00S 03°24' E 009°36'6 6.0 1015.7 18.5
2014-Jul-28 20:00S 03°18' E 009°36'8 8.5 1015.3 18.6
2014-Jul-28 19:00S 03°12' E 009°30'8 8.5 1014.8 18.8
2014-Jul-28 18:00S 03°06' E 009°24'8 8.5 1014.1 18.9
2014-Jul-28 17:00S 03°00' E 009°18'8 4.2 1013.4 18.8
2014-Jul-28 15:00S 02°54' E 009°12'17 8.5 1013.3 18.9
2014-Jul-28 13:00S 02°42' E 009°00'6 6.0 1014.3 19.4
2014-Jul-28 12:00S 02°36' E 009°00'8 8.5 1014.9 19.6
2014-Jul-28 11:00S 02°30' E 008°54'6 6.0 1015.9 19.9
2014-Jul-28 10:00S 02°24' E 008°54'6 6.0 1016.8 19.9
2014-Jul-28 09:00S 02°24' E 008°48'12 6.0 1017.3 19.5
2014-Jul-28 07:00S 02°12' E 008°48'8 8.5 1016.9 18.7
2014-Jul-28 06:00S 02°06' E 008°42'6 6.0 1016.0 18.9
2014-Jul-28 05:00S 02°00' E 008°42'6 6.0 1015.5 19.0
2014-Jul-28 04:00S 01°54' E 008°42'8 8.5 1014.9 19.4
2014-Jul-28 03:00S 01°48' E 008°36'6 6.0 1014.8 19.6
2014-Jul-28 02:00S 01°42' E 008°36'8 8.5 1014.4 19.7
2014-Jul-28 01:00S 01°36' E 008°30'6 6.0 1014.6 19.8
2014-Jul-28 00:00S 01°30' E 008°30'8 8.5 1015.1 19.9
2014-Jul-27 23:00S 01°24' E 008°24'13 6.7 1015.4 20.1
2014-Jul-27 21:00S 01°12' E 008°18'6 6.0 1016.0 20.5
2014-Jul-27 20:00S 01°06' E 008°18'6 6.0 1015.9 20.6
2014-Jul-27 19:00S 01°06' E 008°24'6 6.0 1014.7 20.8
2014-Jul-27 18:00S 01°00' E 008°24'6 6.0 1014.1 20.8
2014-Jul-27 17:00S 00°54' E 008°24'18 9.0 1013.0 21.1
2014-Jul-27 15:00S 00°36' E 008°24'8 8.5 1012.7 21.8
2014-Jul-27 14:00S 00°30' E 008°30'6 6.0 1012.9 21.8
2014-Jul-27 13:00S 00°24' E 008°30'8 8.5 1014.3 22.1
2014-Jul-27 12:00S 00°18' E 008°36'0 0.0 1015.1 22.1
2014-Jul-27 10:00S 00°18' E 008°36'8 8.5 1017.0 22.0
2014-Jul-27 09:00S 00°12' E 008°42'8 8.5 1017.3 21.2
2014-Jul-27 08:00S 00°06' E 008°48'6 6.0 1017.1 21.3
2014-Jul-27 07:00N 00°00' E 008°48'6 6.0 1016.3 21.4
2014-Jul-27 06:00N 00°06' E 008°48'12 6.0 1015.5 21.5
2014-Jul-27 04:00N 00°18' E 008°48'6 6.0 1013.9 21.8
2014-Jul-27 03:00N 00°24' E 008°48'6 6.0 1013.7 21.8
2014-Jul-27 02:00N 00°30' E 008°48'1212.0 1013.4 21.9
2014-Jul-27 01:00N 00°42' E 008°48'8 8.5 1014.2 22.1
2014-Jul-27 00:00N 00°48' E 008°54'6 6.0 1014.6 22.6
2014-Jul-26 23:00N 00°54' E 008°54'8 8.5 1015.1 22.8
2014-Jul-26 22:00N 01°00' E 009°00'6 6.0 1015.0 23.1
2014-Jul-26 21:00N 01°06' E 009°00'8 8.5 1015.0 23.3
2014-Jul-26 20:00N 01°12' E 009°06'12 6.0 1014.3 23.4
2014-Jul-26 18:00N 01°24' E 009°06'8 8.5 1012.9 23.1
2014-Jul-26 17:00N 01°30' E 009°12'6 6.0 1012.4 23.0
2014-Jul-26 16:00N 01°36' E 009°12'6 6.0 1012.1 22.6
2014-Jul-26 15:00N 01°42' E 009°12'1212.0 1012.6 22.7
2014-Jul-26 14:00N 01°54' E 009°12'8 8.5 1013.2 22.6
2014-Jul-26 13:00N 02°00' E 009°18'6 6.0 1013.5 22.9
2014-Jul-26 12:00N 02°06' E 009°18'19 6.3 1014.3 23.0
2014-Jul-26 09:00N 02°24' E 009°24'6 6.0 1016.0 22.9
2014-Jul-26 08:00N 02°30' E 009°24'13 6.7 1015.8 22.9
2014-Jul-26 06:00N 02°42' E 009°30'12 6.0 1014.5 23.3
2014-Jul-26 04:00N 02°54' E 009°30'1212.0 1014.0 23.3
2014-Jul-26 03:00N 02°54' E 009°18'6 6.0 1013.7 23.4
2014-Jul-26 02:00N 02°54' E 009°12'6 6.0 1014.1 23.5
2014-Jul-26 01:00N 02°54' E 009°06'6 6.0 1014.8 23.6
2014-Jul-26 00:00N 02°54' E 009°00'6 6.0 1015.3 23.6
2014-Jul-25 23:00N 02°54' E 008°54'6 6.0 1015.9 23.6
2014-Jul-25 22:00N 02°54' E 008°48'1212.0 1016.4 23.8
2014-Jul-25 21:00N 02°54' E 008°36'6 6.0 1016.1 24.0
2014-Jul-25 20:00N 02°54' E 008°30'6 6.0 1015.8 24.1
2014-Jul-25 19:00N 02°54' E 008°24'6 6.0 1015.3 24.2
2014-Jul-25 18:00N 03°00' E 008°24'22 7.2 1014.3 24.2
2014-Jul-25 15:00N 03°18' E 008°12'6 6.0 1013.9 24.5
2014-Jul-25 14:00N 03°18' E 008°06'8 8.5 1014.2 24.9
2014-Jul-25 13:00N 03°24' E 008°00'8 8.5 1015.0 24.6
2014-Jul-25 12:00N 03°30' E 007°54'0 0.0 1016.0 24.0
2014-Jul-25 11:00N 03°30' E 007°54'6 6.0 1016.6 23.7
2014-Jul-25 10:00N 03°30' E 007°48'0 0.0 1017.0 24.1
2014-Jul-25 09:00N 03°30' E 007°48'6 6.0 1017.1 24.2
2014-Jul-25 08:00N 03°30' E 007°42'6 6.0 1016.8 24.1
2014-Jul-25 07:00N 03°30' E 007°36'6 6.0 1016.4 24.1
2014-Jul-25 06:00N 03°30' E 007°30'12 6.0 1015.6 23.8
2014-Jul-25 04:00N 03°30' E 007°18'8 8.5 1014.2 23.8
2014-Jul-25 03:00N 03°36' E 007°12'0 0.0 1014.3 23.8
2014-Jul-25 02:00N 03°36' E 007°12'1212.0 1014.7 24.0
2014-Jul-25 01:00N 03°36' E 007°00'6 6.0 1015.3 24.0
2014-Jul-25 00:00N 03°36' E 006°54'6 6.0 1016.0 24.1
2014-Jul-24 23:00N 03°36' E 006°48'6 6.0 1016.7 24.1
2014-Jul-24 22:00N 03°36' E 006°42'6 6.0 1017.0 24.2
2014-Jul-24 21:00N 03°36' E 006°36'1212.0 1016.7 24.3
2014-Jul-24 20:00N 03°36' E 006°24'6 6.0 1015.8 24.0
2014-Jul-24 19:00N 03°36' E 006°18'8 8.5 1014.8 23.9
2014-Jul-24 18:00N 03°42' E 006°12'6 6.0 1014.2 24.3
2014-Jul-24 17:00N 03°42' E 006°06'6 6.0 1014.0 24.9
2014-Jul-24 16:00N 03°42' E 006°00'1212.0 1014.2 24.9
2014-Jul-24 15:00N 03°42' E 005°48'6 6.0 1014.3 25.0
2014-Jul-24 14:00N 03°42' E 005°42'13 6.7 1014.8 25.1
2014-Jul-24 12:00N 03°48' E 005°30'6 6.0 1016.3 25.4
2014-Jul-24 11:00N 03°48' E 005°24'6 6.0 1017.5 24.5
2014-Jul-24 10:00N 03°48' E 005°18'6 6.0 1017.8 24.9
2014-Jul-24 09:00N 03°54' E 005°18'0 0.0 1017.8 24.2
2014-Jul-24 08:00N 03°54' E 005°18'13 6.7 1017.3 24.9
2014-Jul-24 06:00N 04°06' E 005°12'8 8.5 1016.2 24.0
2014-Jul-24 05:00N 04°12' E 005°06'8 8.5 1015.9 24.1
2014-Jul-24 04:00N 04°18' E 005°00'6 6.0 1015.3 24.1
2014-Jul-24 03:00N 04°24' E 005°00'13 6.7 1015.4 23.9
2014-Jul-24 01:00N 04°36' E 004°54'8 8.5 1016.0 24.2
2014-Jul-24 00:00N 04°42' E 004°48'6 6.0 1016.4 24.3
2014-Jul-23 23:00N 04°48' E 004°48'8 8.5 1017.0 24.5
2014-Jul-23 22:00N 04°54' E 004°42'1212.0 1016.9 24.5
2014-Jul-23 21:00N 05°06' E 004°42'6 6.0 1016.2 24.6
2014-Jul-23 20:00N 05°12' E 004°42'8 8.5 1016.1 24.6
2014-Jul-23 19:00N 05°18' E 004°36'6 6.0 1015.6 24.8
2014-Jul-23 18:00N 05°24' E 004°36'8 8.5 1015.0 24.8
2014-Jul-23 17:00N 05°30' E 004°30'8 8.5 1014.3 25.0
2014-Jul-23 16:00N 05°36' E 004°24'6 6.0 1014.3 25.3
2014-Jul-23 15:00N 05°42' E 004°24'8 8.5 1014.5 25.6
2014-Jul-23 14:00N 05°48' E 004°18'6 6.0 1014.8 25.6
2014-Jul-23 13:00N 05°48' E 004°12'8 8.5 1015.5 25.9
2014-Jul-23 12:00N 05°54' E 004°06'8 8.5 1016.5 25.3
2014-Jul-23 11:00N 06°00' E 004°00'6 6.0 1017.0 25.2
2014-Jul-23 10:00N 06°06' E 004°00'6 6.0 1017.4 25.3
2014-Jul-23 09:00N 06°06' E 003°54'6 6.0 1017.4 25.4
2014-Jul-23 08:00N 06°06' E 003°48'1211.9 1016.5 24.9
2014-Jul-23 07:00N 06°06' E 003°36'6 6.0 1016.3 24.7
2014-Jul-23 06:00N 06°06' E 003°30'6 6.0 1015.8 24.5
2014-Jul-23 05:00N 06°06' E 003°24'6 6.0 1015.2 24.3
2014-Jul-23 04:00N 06°06' E 003°18'1211.9 1014.9 24.2
2014-Jul-23 03:00N 06°06' E 003°06'6 6.0 1014.7 24.2
2014-Jul-23 02:00N 06°06' E 003°00'6 6.0 1014.8 24.3
2014-Jul-23 01:00N 06°06' E 002°54'6 6.0 1015.4 24.4
2014-Jul-23 00:00N 06°06' E 002°48'18 8.9 1015.5 24.4
2014-Jul-22 22:00N 06°06' E 002°30'6 6.0 1016.5 24.4
2014-Jul-22 21:00N 06°06' E 002°24'6 6.0 1016.4 24.3
2014-Jul-22 20:00N 06°06' E 002°18'6 6.0 1016.0 24.3
2014-Jul-22 19:00N 06°06' E 002°12'1211.9 1015.5 24.2
2014-Jul-22 18:00N 06°06' E 002°00'13 6.7 1015.3 24.2
2014-Jul-22 16:00N 06°00' E 001°48'6 6.0 1014.8 24.5
2014-Jul-22 15:00N 06°00' E 001°42'6 6.0 1014.4 24.5
2014-Jul-22 14:00N 06°00' E 001°36'1313.4 1015.0 24.1
2014-Jul-22 13:00N 05°54' E 001°24'6 6.0 1015.9 23.9
2014-Jul-22 12:00N 05°54' E 001°18'0 0.0 1016.8 23.9
2014-Jul-22 11:00N 05°54' E 001°18'1313.4 1017.1 23.8
2014-Jul-22 10:00N 05°42' E 001°12'0 0.0 1018.0 23.7
2014-Jul-22 09:00N 05°42' E 001°12'8 8.5 1017.9 23.4
2014-Jul-22 08:00N 05°36' E 001°06'6 6.0 1017.4 23.4
2014-Jul-22 07:00N 05°30' E 001°06'6 6.0 1016.3 23.3
2014-Jul-22 06:00N 05°30' E 001°00'1211.9 1015.9 22.9
2014-Jul-22 05:00N 05°30' E 000°48'6 6.0 1016.2 22.8
2014-Jul-22 04:00N 05°30' E 000°42'6 6.0 1015.4 22.7
2014-Jul-22 03:00N 05°30' E 000°36'6 6.0 1015.3 22.7
2014-Jul-22 02:00N 05°30' E 000°30'6 6.0 1015.5 22.5
2014-Jul-22 01:00N 05°30' E 000°24'6 6.0 1015.8 22.6
2014-Jul-22 00:00N 05°30' E 000°18'19 9.4 1016.2 22.7
2014-Jul-21 22:00N 05°24' E 000°00'6 6.0 1016.5 23.1
2014-Jul-21 21:00N 05°18' E 000°00'8 8.5 1016.3 23.1
2014-Jul-21 20:00N 05°12' W 000°06'6 6.0 1016.3 23.2
2014-Jul-21 19:00N 05°12' W 000°12'8 8.5 1016.3 23.7
2014-Jul-21 18:00N 05°06' W 000°18'8 8.5 1015.9 24.6
2014-Jul-21 17:00N 05°00' W 000°24'8 8.5 1015.3 25.6
2014-Jul-21 16:00N 04°54' W 000°30'6 6.0 1015.1 26.3
2014-Jul-21 15:00N 04°48' W 000°30'13 6.7 1015.4 24.5
2014-Jul-21 13:00N 04°42' W 000°42'8 8.5 1016.6 26.0
2014-Jul-21 12:00N 04°36' W 000°48'8 8.5 1017.3 25.6
2014-Jul-21 11:00N 04°30' W 000°54'8 8.5 1018.1 24.9
2014-Jul-21 10:00N 04°24' W 001°00'6 6.0 1018.2 24.4
2014-Jul-21 09:00N 04°24' W 001°06'8 8.5 1018.2 24.2
2014-Jul-21 08:00N 04°18' W 001°12'6 6.0 1017.7 23.5
2014-Jul-21 07:00N 04°18' W 001°18'8 8.5 1017.1 23.3
2014-Jul-21 06:00N 04°12' W 001°24'6 6.0 1016.5 23.1
2014-Jul-21 05:00N 04°12' W 001°30'6 6.0 1016.0 23.3
2014-Jul-21 04:00N 04°12' W 001°36'6 6.0 1015.8 23.3
2014-Jul-21 03:00N 04°12' W 001°42'6 6.0 1015.9 23.3
2014-Jul-21 02:00N 04°12' W 001°48'8 8.5 1016.1 23.2
2014-Jul-21 01:00N 04°18' W 001°54'6 6.0 1016.5 23.3
2014-Jul-21 00:00N 04°18' W 002°00'8 8.5 1016.8 23.3
2014-Jul-20 23:00N 04°24' W 002°06'6 6.0 1017.0 23.4
2014-Jul-20 22:00N 04°24' W 002°12'6 6.0 1017.2 23.3
2014-Jul-20 21:00N 04°24' W 002°18'8 8.5 1016.9 23.3
2014-Jul-20 20:00N 04°30' W 002°24'6 6.0 1016.4 23.5
2014-Jul-20 19:00N 04°30' W 002°30'8 8.5 1015.6 23.5
2014-Jul-20 18:00N 04°36' W 002°36'6 6.0 1014.9 23.7
2014-Jul-20 17:00N 04°36' W 002°42'8 8.5 1014.6 24.2
2014-Jul-20 16:00N 04°42' W 002°48'6 6.0 1014.9 24.0
2014-Jul-20 15:00N 04°42' W 002°54'18 9.0 1015.1 24.4
2014-Jul-20 13:00N 04°42' W 003°12'   1016.3 24.7

Dump ship's entire track history